小松飛行場の過去48時間の天気

小松飛行場 (Kanazawa/Komatsu)

現在時刻: 10/20 03:42 JST (10/19 18:42 UTC) 以下の時間は現地時間です。

過去48時間のMETAR気象情報
時間 風向 風速(m/s) 視程 気温(℃) 湿度(%) 気圧(hPa) 天気現象
20 03:00 東北東 2 10km以上 13 94 1019
20 02:00 不定 1 10km以上 13 94 1019 弱いしゅう雨
20 01:00 不定 1 10km以上 13 94 1020 弱いしゅう雨
20 00:00 南南東 2 10km以上 13 88 1019
19 23:00 3 10km以上 14 88 1019
19 22:00 東南東 3 10km以上 15 82 1019
19 21:00 不定 1 10km以上 14 88 1019
19 20:00 2 10km以上 15 82 1018
19 19:00 2 10km以上 14 94 1018
19 18:00 3 10km以上 15 88 1017
19 17:00 東北東 3 10km以上 15 88 1017
19 16:00 4 10km以上 16 82 1017
19 15:00 2 10km以上 16 82 1017 弱い雷雨
19 14:00 南南東 6 10km以上 16 72 1016 弱い雷雨
19 13:00 北西 5 10km以上 20 64 1016
19 12:00 北西 4 10km以上 20 64 1016
19 11:00 不定 1 10km以上 20 60 1017
19 10:00 不定 2 10km以上 19 64 1017 弱いしゅう雨
19 09:00 北北東 2 10km以上 18 64 1017
19 08:00 不定 2 10km以上 16 72 1017
19 07:00 東南東 2 10km以上 14 82 1017
19 06:00 南東 3 10km以上 13 88 1017
19 05:00 東南東 2 10km以上 13 88 1016 弱い雷雨
RJNK 191800Z 07004KT 9999 FEW015 SCT060 BKN120 13/12 Q1019
RJNK 191700Z VRB02KT 9999 -SHRA FEW015 SCT040 BKN060 13/12 Q1019
RJNK 191600Z VRB02KT 9999 -SHRA FEW015CB SCT020 BKN040 13/12 Q1020 RETS
RJNK 191500Z 15004KT 9999 FEW015CB SCT100 BKN160 13/11 Q1019
RJNK 191400Z 10005KT 9999 FEW015CB BKN100 14/12 Q1019 RETS
RJNK 191300Z 12005KT 9999 FEW015CB BKN100 15/12 Q1019
RJNK 191200Z VRB02KT 9999 FEW015 SCT080 BKN100 14/12 Q1019
RJNK 191100Z 10003KT 9999 FEW015 BKN100 15/12 Q1018
RJNK 191000Z 09003KT 9999 FEW015CB SCT100 14/13 Q1018
RJNK 190900Z 10006KT 9999 FEW015CB BKN100 15/13 Q1017
RJNK 190800Z 06005KT 9999 FEW015 SCT050 15/13 Q1017 RETS
RJNK 190700Z 10007KT 9999 TS FEW015CB SCT030 BKN050 16/13 Q1017
RJNK 190600Z 08004KT 050V110 9999 -TSRA FEW015CB BKN030 BKN050 16/13 Q1017
RJNK 190500Z 15011KT 120V180 9999 -TSRA FEW015CB BKN030 BKN050 16/11 Q1016
RJNK 190400Z 32009KT 9999 TS FEW015CB SCT050 BKN150 20/13 Q1016
RJNK 190300Z 31007KT 280V340 9999 FEW015CB SCT150 BKN210 20/13 Q1016
RJNK 190200Z VRB02KT 9999 FEW030 SCT170 20/12 Q1017
RJNK 190100Z VRB03KT 9999 -SHRA FEW015 SCT050 BKN210 19/12 Q1017
RJNK 190000Z 03004KT 340V070 9999 FEW015CB BKN100 18/11 Q1017
RJNK 182300Z VRB03KT 9999 FEW015CB SCT170 16/11 Q1017
RJNK 182200Z 12004KT 080V140 9999 FEW015CB SCT120 14/11 Q1017
RJNK 182100Z 13005KT 9999 FEW015CB 13/11 Q1017
RJNK 182000Z 11003KT 9999 -TSRA FEW015CB BKN030 13/11 Q1016